createdAt,value
2023-10-25T00:00:53.620Z,5.43
2023-10-25T00:03:21.686Z,3.78
2023-10-25T00:05:51.214Z,2.50
2023-10-25T00:10:47.102Z,4.68
2023-10-25T00:13:15.202Z,8.30
2023-10-25T00:15:43.172Z,5.25
2023-10-25T00:18:11.259Z,4.75
2023-10-25T00:20:39.331Z,5.57
2023-10-25T00:23:08.708Z,6.80
2023-10-25T00:25:36.913Z,4.43
2023-10-25T00:28:05.353Z,8.48
2023-10-25T00:30:33.538Z,6.90
2023-10-25T00:33:01.521Z,4.60
2023-10-25T00:35:29.772Z,8.23
2023-10-25T00:37:57.685Z,6.50
2023-10-25T00:40:27.254Z,6.47
2023-10-25T00:43:00.205Z,4.68
2023-10-25T00:45:29.757Z,8.35
2023-10-25T00:47:58.043Z,6.50
2023-10-25T00:50:26.128Z,3.65
2023-10-25T00:52:54.130Z,4.55
2023-10-25T00:55:22.004Z,12.25
2023-10-25T00:57:50.712Z,5.15
2023-10-25T01:00:18.624Z,8.43
2023-10-25T01:02:46.828Z,6.50
2023-10-25T01:05:16.582Z,6.68
2023-10-25T01:07:44.997Z,8.05
2023-10-25T01:10:13.100Z,7.13
2023-10-25T01:12:42.446Z,5.68
2023-10-25T01:15:14.009Z,6.10
2023-10-25T01:17:42.086Z,6.07
2023-10-25T01:20:10.426Z,3.28
2023-10-25T01:22:39.838Z,6.30
2023-10-25T01:27:36.212Z,1.63
2023-10-25T01:30:04.552Z,3.70
2023-10-25T01:32:32.586Z,2.13
2023-10-25T01:35:00.511Z,4.45
2023-10-25T01:37:28.502Z,5.70
2023-10-25T01:39:57.741Z,2.25
2023-10-25T01:42:25.936Z,5.40
2023-10-25T01:44:54.252Z,3.25
2023-10-25T01:47:22.474Z,8.88
2023-10-25T01:49:51.980Z,4.00
2023-10-25T01:52:19.877Z,3.45
2023-10-25T01:54:51.953Z,2.25
2023-10-25T01:57:21.544Z,5.93
2023-10-25T01:59:49.426Z,3.65
2023-10-25T02:02:17.923Z,5.03
2023-10-25T02:04:46.267Z,5.57
2023-10-25T02:07:14.234Z,5.85
2023-10-25T02:09:42.900Z,4.18
2023-10-25T02:12:10.933Z,7.40
2023-10-25T02:14:40.543Z,4.50
2023-10-25T02:17:08.461Z,6.25
2023-10-25T02:19:36.391Z,3.55
2023-10-25T02:22:04.708Z,4.28
2023-10-25T02:24:32.766Z,3.97
2023-10-25T02:27:01.664Z,4.35
2023-10-25T02:29:29.858Z,10.82
2023-10-25T02:31:59.080Z,4.50
2023-10-25T02:34:27.238Z,6.13
2023-10-25T02:36:55.870Z,3.80
2023-10-25T02:39:24.938Z,4.70
2023-10-25T02:41:52.979Z,2.45
2023-10-25T02:44:21.668Z,3.97
2023-10-25T02:46:49.840Z,5.85
2023-10-25T02:49:19.302Z,4.80
2023-10-25T02:51:47.388Z,3.92
2023-10-25T02:54:15.245Z,4.55
2023-10-25T02:56:43.312Z,3.50
2023-10-25T02:59:11.828Z,7.20
2023-10-25T03:01:40.172Z,6.40
2023-10-25T03:04:08.329Z,7.63
2023-10-25T03:06:37.991Z,5.18
2023-10-25T03:09:07.065Z,5.68
2023-10-25T03:11:34.928Z,4.40
2023-10-25T03:14:02.981Z,2.78
2023-10-25T03:16:31.140Z,4.03
2023-10-25T03:18:59.098Z,5.97
2023-10-25T03:21:27.295Z,7.72
2023-10-25T03:23:56.532Z,6.00
2023-10-25T03:26:24.697Z,4.28
2023-10-25T03:28:53.331Z,4.47
2023-10-25T03:31:21.297Z,4.57
2023-10-25T03:33:49.741Z,4.47
2023-10-25T03:36:18.249Z,4.93
2023-10-25T03:38:46.271Z,2.83
2023-10-25T03:41:15.524Z,3.05
2023-10-25T03:46:11.712Z,4.20
2023-10-25T03:48:40.729Z,5.03
2023-10-25T03:51:10.861Z,3.92
2023-10-25T03:53:40.271Z,3.85
2023-10-25T03:58:37.229Z,6.97
2023-10-25T04:03:39.746Z,2.90
2023-10-25T04:06:09.412Z,6.03
2023-10-25T04:08:37.467Z,5.53
2023-10-25T04:11:05.587Z,6.60
2023-10-25T04:13:34.104Z,6.60
2023-10-25T04:16:05.077Z,6.38
2023-10-25T04:18:34.773Z,5.20
2023-10-25T04:21:03.626Z,6.85
2023-10-25T04:23:32.813Z,4.82
2023-10-25T04:26:07.600Z,3.78
2023-10-25T04:28:35.799Z,3.30
2023-10-25T04:31:05.304Z,4.93
2023-10-25T04:33:33.437Z,3.38
2023-10-25T04:36:01.438Z,3.28
2023-10-25T04:38:29.393Z,1.88
2023-10-25T04:40:57.865Z,3.13
2023-10-25T04:43:25.913Z,3.85
2023-10-25T04:45:54.032Z,4.95
2023-10-25T04:48:23.568Z,5.00
2023-10-25T04:50:51.426Z,3.78
2023-10-25T04:53:19.527Z,3.28
2023-10-25T04:55:47.740Z,4.13
2023-10-25T04:58:16.091Z,6.25
2023-10-25T05:00:44.200Z,2.63
2023-10-25T05:03:13.116Z,2.85
2023-10-25T05:05:42.841Z,4.28
2023-10-25T05:08:12.049Z,2.55
2023-10-25T05:13:08.830Z,2.67
2023-10-25T05:15:37.411Z,3.05
2023-10-25T05:18:06.275Z,5.95
2023-10-25T05:20:35.066Z,5.10
2023-10-25T05:23:05.527Z,6.28
2023-10-25T05:25:34.331Z,6.75
2023-10-25T05:28:02.763Z,5.32
2023-10-25T05:30:31.455Z,6.13
2023-10-25T05:33:02.770Z,3.03
2023-10-25T05:35:31.646Z,9.10
2023-10-25T05:38:00.456Z,4.30
2023-10-25T05:40:30.671Z,5.82
2023-10-25T05:43:00.967Z,4.72
2023-10-25T05:45:28.912Z,4.63
2023-10-25T05:47:57.358Z,4.55
2023-10-25T05:50:25.826Z,4.63
2023-10-25T05:52:54.567Z,4.30
2023-10-25T05:55:23.065Z,5.10
2023-10-25T05:57:53.066Z,5.28
2023-10-25T06:00:22.190Z,3.70
2023-10-25T06:02:52.475Z,2.90
2023-10-25T06:05:20.785Z,6.10
2023-10-25T06:07:49.338Z,4.53
2023-10-25T06:10:17.944Z,3.87
2023-10-25T06:12:46.726Z,5.30
2023-10-25T06:15:16.283Z,3.47
2023-10-25T06:17:44.289Z,1.80
2023-10-25T06:20:14.349Z,5.15
2023-10-25T06:22:42.412Z,2.92
2023-10-25T06:25:13.762Z,8.00
2023-10-25T06:27:42.297Z,2.20
2023-10-25T06:30:11.052Z,2.25
2023-10-25T06:32:42.351Z,8.77
2023-10-25T06:35:10.994Z,3.40
2023-10-25T06:37:39.360Z,3.90
2023-10-25T06:40:08.636Z,5.43
2023-10-25T06:42:37.450Z,4.68
2023-10-25T06:45:06.723Z,5.00
2023-10-25T06:50:05.475Z,3.80
2023-10-25T06:52:33.956Z,1.73
2023-10-25T06:55:02.529Z,5.28
2023-10-25T06:57:31.165Z,1.70
2023-10-25T06:59:59.483Z,2.75
2023-10-25T07:02:40.407Z,6.87
2023-10-25T07:05:14.947Z,4.20
2023-10-25T07:07:45.359Z,2.75
2023-10-25T07:10:14.730Z,4.47
2023-10-25T07:12:43.016Z,3.05
2023-10-25T07:15:12.619Z,2.65
2023-10-25T07:17:41.096Z,2.17
2023-10-25T07:20:11.053Z,6.17
2023-10-25T07:22:40.508Z,3.63
2023-10-25T07:25:09.401Z,3.60
2023-10-25T07:27:38.239Z,1.52
2023-10-25T07:30:08.189Z,3.20
2023-10-25T07:32:36.943Z,5.18
2023-10-25T07:35:05.992Z,6.03
2023-10-25T07:37:33.968Z,1.80
2023-10-25T07:40:06.472Z,2.83
2023-10-25T07:42:34.420Z,4.35
2023-10-25T07:45:02.391Z,2.85
2023-10-25T07:47:30.382Z,4.57
2023-10-25T07:49:58.319Z,2.88
2023-10-25T07:52:26.778Z,3.83
2023-10-25T07:54:54.780Z,3.90
2023-10-25T07:57:58.312Z,5.85
2023-10-25T08:00:14.011Z,6.90
2023-10-25T08:02:41.917Z,7.18
2023-10-25T08:05:10.810Z,5.97
2023-10-25T08:07:38.781Z,4.47
2023-10-25T08:10:08.009Z,6.60
2023-10-25T08:12:37.722Z,4.15
2023-10-25T08:15:07.732Z,5.13
2023-10-25T08:17:36.333Z,5.93
2023-10-25T08:20:06.194Z,3.60
2023-10-25T08:22:35.246Z,2.17
2023-10-25T08:25:03.230Z,3.50
2023-10-25T08:27:31.436Z,4.50
2023-10-25T08:30:00.831Z,5.97
2023-10-25T08:32:28.789Z,4.20
2023-10-25T08:34:56.927Z,3.47
2023-10-25T08:37:24.875Z,2.20
2023-10-25T08:39:52.806Z,4.55
2023-10-25T08:42:21.303Z,3.05
2023-10-25T08:44:49.255Z,5.30
2023-10-25T08:47:19.757Z,2.70
2023-10-25T08:49:47.787Z,4.43
2023-10-25T08:52:21.174Z,5.28
2023-10-25T08:54:49.227Z,5.68
2023-10-25T08:57:19.678Z,5.07
2023-10-25T08:59:49.226Z,4.97
2023-10-25T09:02:18.567Z,6.75
2023-10-25T09:07:31.020Z,4.40
2023-10-25T09:09:59.579Z,7.13
2023-10-25T09:12:27.827Z,4.65
2023-10-25T09:14:55.976Z,5.22
2023-10-25T09:17:25.246Z,7.53
2023-10-25T09:19:53.399Z,6.93
2023-10-25T09:22:22.974Z,10.57
2023-10-25T09:24:51.671Z,5.40
2023-10-25T09:27:21.980Z,6.93
2023-10-25T09:29:50.429Z,4.70
2023-10-25T09:32:20.471Z,6.00
2023-10-25T09:34:51.249Z,4.93
2023-10-25T09:37:19.219Z,7.88
2023-10-25T09:39:47.375Z,7.82
2023-10-25T09:42:19.321Z,4.63
2023-10-25T09:44:49.224Z,5.30
2023-10-25T09:47:18.754Z,4.30
2023-10-25T09:52:20.934Z,7.03
2023-10-25T09:54:52.124Z,2.80
2023-10-25T09:57:20.337Z,4.95
2023-10-25T09:59:48.495Z,6.50
2023-10-25T10:02:25.405Z,4.80
2023-10-25T10:05:00.054Z,4.43
2023-10-25T10:07:37.588Z,5.80
2023-10-25T10:10:16.714Z,4.05
2023-10-25T10:15:13.578Z,5.53
2023-10-25T10:17:45.329Z,6.32
2023-10-25T10:20:28.296Z,4.80
2023-10-25T10:23:07.983Z,4.80
2023-10-25T10:25:46.530Z,4.68
2023-10-25T10:28:15.388Z,6.80
2023-10-25T10:30:44.178Z,4.30
2023-10-25T10:33:14.323Z,3.92
2023-10-25T10:35:46.681Z,6.00
2023-10-25T10:38:16.127Z,6.57
2023-10-25T10:40:44.074Z,4.25
2023-10-25T10:43:12.161Z,3.33
2023-10-25T10:45:44.840Z,4.28
2023-10-25T10:48:15.746Z,5.03
2023-10-25T10:50:43.974Z,2.30
2023-10-25T10:53:11.998Z,1.38
2023-10-25T10:55:42.438Z,1.23
2023-10-25T10:58:11.320Z,1.17
2023-10-25T11:00:39.392Z,3.35
2023-10-25T11:03:10.114Z,2.33
2023-10-25T11:05:39.070Z,1.05
2023-10-25T11:08:12.331Z,1.13
2023-10-25T11:10:42.172Z,1.77
2023-10-25T11:13:10.375Z,0.90
2023-10-25T11:15:39.302Z,2.42
2023-10-25T11:20:36.702Z,3.08
2023-10-25T11:23:05.109Z,1.00
2023-10-25T11:25:33.145Z,1.40
2023-10-25T11:28:02.606Z,2.15
2023-10-25T11:30:31.811Z,2.03
2023-10-25T11:35:30.000Z,1.02
2023-10-25T11:38:00.046Z,2.10
2023-10-25T11:40:40.020Z,2.28
2023-10-25T11:43:09.894Z,2.10
2023-10-25T11:45:38.735Z,4.05
2023-10-25T11:48:08.007Z,3.13
2023-10-25T11:50:36.963Z,5.00
2023-10-25T11:53:04.962Z,2.72
2023-10-25T11:55:33.052Z,4.50
2023-10-25T11:58:02.985Z,3.88
2023-10-25T12:00:32.697Z,5.07
2023-10-25T12:03:00.621Z,3.03
2023-10-25T12:05:28.623Z,5.97
2023-10-25T12:07:56.582Z,2.22
2023-10-25T12:10:25.252Z,1.98
2023-10-25T12:12:53.185Z,2.15
2023-10-25T12:15:21.609Z,2.42
2023-10-25T12:17:51.025Z,2.55
2023-10-25T12:20:27.663Z,2.10
2023-10-25T12:22:57.644Z,4.63
2023-10-25T12:25:25.961Z,3.15
2023-10-25T12:27:53.935Z,1.40
2023-10-25T12:30:21.910Z,5.10
2023-10-25T12:32:52.567Z,4.95
2023-10-25T12:35:22.190Z,5.35
2023-10-25T12:37:50.085Z,4.05
2023-10-25T12:40:18.830Z,5.90
2023-10-25T12:42:46.828Z,5.18
2023-10-25T12:45:14.793Z,5.53
2023-10-25T12:47:42.817Z,6.35
2023-10-25T12:50:12.627Z,9.75
2023-10-25T12:52:40.524Z,7.78
2023-10-25T12:55:09.032Z,7.50
2023-10-25T12:57:37.196Z,3.58
2023-10-25T13:00:06.713Z,3.60
2023-10-25T13:02:34.719Z,3.97
2023-10-25T13:05:03.524Z,3.08
2023-10-25T13:07:32.811Z,2.13
2023-10-25T13:12:28.907Z,1.95
2023-10-25T13:14:57.138Z,2.22
2023-10-25T13:17:25.162Z,1.52
2023-10-25T13:19:53.043Z,2.10
2023-10-25T13:22:23.470Z,2.13
2023-10-25T13:24:53.357Z,5.32
2023-10-25T13:29:49.515Z,3.33
2023-10-25T13:32:17.469Z,12.23
2023-10-25T13:34:45.764Z,3.55
2023-10-25T13:37:13.881Z,4.32
2023-10-25T13:39:42.510Z,5.10
2023-10-25T13:42:12.657Z,3.83
2023-10-25T13:44:40.580Z,4.60
2023-10-25T13:47:10.420Z,2.22
2023-10-25T13:49:38.376Z,2.42
2023-10-25T13:52:07.321Z,4.22
2023-10-25T13:54:35.348Z,3.47
2023-10-25T13:57:03.938Z,4.85
2023-10-25T13:59:33.377Z,2.33
2023-10-25T14:04:29.129Z,2.30
2023-10-25T14:06:57.100Z,2.55
2023-10-25T14:09:25.559Z,1.95
2023-10-25T14:11:55.400Z,3.33
2023-10-25T14:14:23.959Z,4.13
2023-10-25T14:16:53.237Z,4.50
2023-10-25T14:21:50.494Z,6.68
2023-10-25T14:24:20.092Z,4.43
2023-10-25T14:26:48.905Z,9.93
2023-10-25T14:29:17.736Z,3.35
2023-10-25T14:31:45.820Z,3.58
2023-10-25T14:34:16.076Z,2.10
2023-10-25T14:36:45.483Z,3.10
2023-10-25T14:39:14.203Z,4.75
2023-10-25T14:41:42.480Z,4.05
2023-10-25T14:44:10.442Z,3.15
2023-10-25T14:46:38.571Z,6.40
2023-10-25T14:49:08.936Z,5.72
2023-10-25T14:51:39.884Z,4.65
2023-10-25T14:56:36.785Z,3.67
2023-10-25T14:59:04.901Z,3.53
2023-10-25T15:01:32.923Z,2.35
2023-10-25T15:04:00.993Z,2.78
2023-10-25T15:06:29.858Z,1.83
2023-10-25T15:08:59.396Z,2.10
2023-10-25T15:11:27.585Z,3.25
2023-10-25T15:13:55.698Z,4.05
2023-10-25T15:16:23.858Z,4.80
2023-10-25T15:18:51.939Z,4.85
2023-10-25T15:21:21.876Z,6.82
2023-10-25T15:23:50.686Z,8.38
2023-10-25T15:26:20.179Z,5.63
2023-10-25T15:31:20.964Z,5.93
2023-10-25T15:33:49.149Z,4.65
2023-10-25T15:36:17.146Z,6.72
2023-10-25T15:38:48.265Z,4.30
2023-10-25T15:41:25.287Z,3.35
2023-10-25T15:43:54.651Z,4.70
2023-10-25T15:48:57.447Z,2.83
2023-10-25T15:53:54.975Z,4.32
2023-10-25T15:56:24.501Z,1.55
2023-10-25T15:58:52.512Z,1.75
2023-10-25T16:01:31.512Z,3.50
2023-10-25T16:04:02.137Z,2.65
2023-10-25T16:06:31.283Z,2.63
2023-10-25T16:08:59.452Z,3.00
2023-10-25T16:11:29.058Z,3.35
2023-10-25T16:13:57.074Z,4.35
2023-10-25T16:16:25.044Z,5.20
2023-10-25T16:18:53.162Z,3.33
2023-10-25T16:21:21.200Z,14.10
2023-10-25T16:23:50.168Z,25.38
2023-10-25T16:26:18.637Z,59.05
2023-10-25T16:28:48.357Z,10.98
2023-10-25T16:31:16.346Z,16.48
2023-10-25T16:33:44.937Z,96.55
2023-10-25T16:36:15.325Z,26.08
2023-10-25T16:38:43.754Z,12.38
2023-10-25T16:41:14.520Z,33.60
2023-10-25T16:43:42.827Z,11.32
2023-10-25T16:46:12.249Z,39.58
2023-10-25T16:51:29.955Z,38.00
2023-10-25T16:53:58.011Z,19.83
2023-10-25T16:56:26.155Z,23.92
2023-10-25T16:58:55.518Z,17.88
2023-10-25T17:01:25.020Z,28.05
2023-10-25T17:03:53.043Z,39.25
2023-10-25T17:06:21.903Z,40.92
2023-10-25T17:08:50.166Z,12.93
2023-10-25T17:11:17.329Z,6.65
2023-10-25T17:13:45.349Z,6.60
2023-10-25T17:16:14.579Z,4.88
2023-10-25T17:18:44.505Z,4.43
2023-10-25T17:21:14.553Z,8.82
2023-10-25T17:23:43.285Z,6.65
2023-10-25T17:26:12.405Z,6.87
2023-10-25T17:28:40.578Z,10.52
2023-10-25T17:31:08.644Z,7.65
2023-10-25T17:33:36.916Z,9.90
2023-10-25T17:36:08.522Z,6.93
2023-10-25T17:38:37.383Z,8.55
2023-10-25T17:41:06.227Z,19.30
2023-10-25T17:43:34.444Z,11.63
2023-10-25T17:48:34.283Z,11.88
2023-10-25T17:51:07.684Z,10.27
2023-10-25T17:53:36.168Z,16.65
2023-10-25T17:56:04.331Z,17.73
2023-10-25T17:58:32.443Z,16.05
2023-10-25T18:01:00.662Z,14.60
2023-10-25T18:03:28.879Z,19.35
2023-10-25T18:05:56.925Z,25.13
2023-10-25T18:08:26.316Z,12.38
2023-10-25T18:15:53.256Z,13.65
2023-10-25T18:18:22.245Z,14.15
2023-10-25T18:20:51.487Z,20.35
2023-10-25T18:23:22.685Z,19.17
2023-10-25T18:25:52.591Z,20.00
2023-10-25T18:28:20.852Z,18.90
2023-10-25T18:32:03.245Z,16.67
2023-10-25T18:33:41.612Z,17.35
2023-10-25T18:36:12.330Z,23.23
2023-10-25T18:38:41.372Z,23.55
2023-10-25T18:41:10.617Z,16.40
2023-10-25T18:43:38.527Z,26.70
2023-10-25T18:46:09.697Z,16.98
2023-10-25T18:48:37.784Z,18.58
2023-10-25T18:51:07.053Z,20.67
2023-10-25T18:53:35.155Z,20.88
2023-10-25T18:56:04.358Z,22.55
2023-10-25T19:01:12.436Z,23.42
2023-10-25T19:03:40.558Z,24.63
2023-10-25T19:06:24.225Z,24.85
2023-10-25T19:08:55.097Z,26.05
2023-10-25T19:11:25.019Z,23.83
2023-10-25T19:13:55.143Z,29.23
2023-10-25T19:16:24.250Z,34.70
2023-10-25T19:18:52.337Z,36.92
2023-10-25T19:21:20.480Z,29.10
2023-10-25T19:23:50.561Z,31.33
2023-10-25T19:26:19.392Z,29.05
2023-10-25T19:28:48.197Z,22.77
2023-10-25T19:31:17.484Z,32.00
2023-10-25T19:36:16.887Z,26.83
2023-10-25T19:38:44.934Z,29.42
2023-10-25T19:41:12.866Z,28.00
2023-10-25T19:43:40.817Z,28.92
2023-10-25T19:46:10.652Z,44.88
2023-10-25T19:48:39.963Z,70.78
2023-10-25T19:51:08.886Z,75.53
2023-10-25T19:53:36.820Z,44.03
2023-10-25T19:56:05.235Z,50.88
2023-10-25T19:58:33.091Z,39.60
2023-10-25T20:01:01.092Z,35.10
2023-10-25T20:03:29.099Z,25.33
2023-10-25T20:06:06.511Z,27.50
2023-10-25T20:08:34.644Z,25.25
2023-10-25T20:11:02.912Z,24.50
2023-10-25T20:13:30.937Z,25.20
2023-10-25T20:15:59.423Z,22.65
2023-10-25T20:18:27.366Z,20.73
2023-10-25T20:20:55.395Z,27.23
2023-10-25T20:23:24.605Z,23.80
2023-10-25T20:25:52.900Z,21.02
2023-10-25T20:28:21.483Z,20.37
2023-10-25T20:30:50.222Z,22.88
2023-10-25T20:33:18.715Z,19.38
2023-10-25T20:35:46.804Z,18.50
2023-10-25T20:38:15.060Z,13.75
2023-10-25T20:40:44.261Z,15.57
2023-10-25T20:45:49.304Z,16.02
2023-10-25T20:48:17.292Z,20.55
2023-10-25T20:50:45.524Z,15.82
2023-10-25T20:53:13.424Z,24.88
2023-10-25T20:55:45.651Z,21.02
2023-10-25T20:58:13.546Z,17.52
2023-10-25T21:00:42.422Z,17.98
2023-10-25T21:03:10.561Z,19.20
2023-10-25T21:05:38.601Z,19.08
2023-10-25T21:08:07.974Z,19.98
2023-10-25T21:13:05.181Z,18.40
2023-10-25T21:18:01.877Z,20.88
2023-10-25T21:20:30.273Z,16.90
2023-10-25T21:22:58.130Z,16.55
2023-10-25T21:25:26.264Z,24.48
2023-10-25T21:27:54.105Z,23.00
2023-10-25T21:30:23.328Z,23.85
2023-10-25T21:32:51.586Z,21.17
2023-10-25T21:35:19.649Z,19.70
2023-10-25T21:37:47.605Z,28.27
2023-10-25T21:40:15.953Z,25.85
2023-10-25T21:42:43.888Z,31.50
2023-10-25T21:45:12.735Z,35.83
2023-10-25T21:47:42.266Z,32.88
2023-10-25T21:50:10.769Z,38.30
2023-10-25T21:52:38.859Z,34.42
2023-10-25T21:55:07.963Z,32.28
2023-10-25T21:59:44.637Z,36.05
2023-10-25T22:00:24.723Z,37.75
2023-10-25T22:02:54.009Z,35.30
2023-10-25T22:05:22.315Z,36.88
2023-10-25T22:07:50.245Z,38.67
2023-10-25T22:10:18.398Z,36.58
2023-10-25T22:12:46.467Z,35.70
2023-10-25T22:15:14.402Z,36.67
2023-10-25T22:17:43.656Z,31.52
2023-10-25T22:22:41.716Z,30.45
2023-10-25T22:25:09.987Z,29.08
2023-10-25T22:27:38.268Z,32.00
2023-10-25T22:30:07.140Z,32.05
2023-10-25T22:32:35.198Z,31.27
2023-10-25T22:35:03.805Z,27.88
2023-10-25T22:37:33.400Z,24.47
2023-10-25T22:40:01.571Z,26.50
2023-10-25T22:42:29.577Z,27.85
2023-10-25T22:44:57.647Z,27.00
2023-10-25T22:47:25.710Z,29.08
2023-10-25T22:49:53.533Z,26.80
2023-10-25T22:52:21.574Z,27.10
2023-10-25T22:54:50.890Z,27.00
2023-10-25T22:57:18.899Z,31.70
2023-10-25T22:59:47.141Z,24.10
2023-10-25T23:02:15.018Z,25.52
2023-10-25T23:04:43.179Z,24.48
2023-10-25T23:07:11.398Z,24.40
2023-10-25T23:09:39.390Z,25.48
2023-10-25T23:12:09.544Z,25.13
2023-10-25T23:14:43.065Z,24.58
2023-10-25T23:17:11.113Z,25.27
2023-10-25T23:19:39.211Z,27.23
2023-10-25T23:22:07.046Z,27.38
2023-10-25T23:24:35.114Z,26.25
2023-10-25T23:27:03.007Z,24.30
2023-10-25T23:29:32.377Z,23.67
2023-10-25T23:34:28.168Z,24.80
2023-10-25T23:36:56.444Z,25.23
2023-10-25T23:39:24.349Z,27.20
2023-10-25T23:41:52.441Z,29.33
2023-10-25T23:44:20.300Z,27.75
2023-10-25T23:46:49.656Z,27.20
2023-10-25T23:51:45.633Z,24.92
2023-10-25T23:54:50.600Z,25.27
2023-10-25T23:57:04.103Z,24.90
2023-10-25T23:59:32.023Z,25.15
